Главная страница
METAR-TAF:

METAR-TAF

Аэропорты :

Кувейт, Кувейт

широта: 29-13N, долгота: 047-59E, высота над уровнем моря: 55 м

Текущие метеонаблюдения

Эта сводка был подготовлена 3 часа и 11 минут назад, в 00:00 UTC
Ветер 5 Узел от северный
Температура 21°C
Влажность 78%
Давление 1016 hPa
Видимость: 7000 м

METAR: OKBK 270000Z 01005KT 7000 NSC 21/17 Q1016 NOSIG

Время: 06:11 (03:11 UTC)

Прогноз

Эта сводка был подготовлена 4 часа и 11 минут назад, в 23:00 UTC
Прогноз действительный с 27-го 00 UTC до 28-го 06 UTC
Ветер 10 Узел от северный
Видимость: 7000 м
временами
С 27-го 00 UTC до 27-го 04 UTC
Ветер 3 Узел переменных направлений
Видимость: 3000 м
мгла

TAF: OKBK 262300Z 2700/2806 35010KT 7000 NSC TEMPO 2700/2704 VRB03KT 3000 HZ

Метеонаблюдения и прогнозы для более 4000 аэропортов (сводки METAR и TAF).

Имеющиеся станции представлены на карте желтыми и красными точками.

Чтобы увидеть название станции, наведите на нее мышь.

Затем щелкните, чтобы увидеть метеонаблюдения и метеопрогнозы.

Управление картой: чтобы увеличить масштаб, щелкните зеленые кнопки с черным крестиком; чтобы уменьшить масштаб, щелкните зеленую кнопку с тире; для просмотра соседних карт щелкайте зеленые стрелки.


METAR-TAF: